Terminal Aerodrome Forecast
Issued by NWS Mt. Holly, NJ

Current Version | Previous Version | Text Only | Print | Product List | Glossary On
Versions: 1 2 3 4 5 6 7 8 9 10 11 12 13 14 15 16 17 18 19 20 21 22 23 24 25 26 27 28
000
FTUS41 KPHI 031123
TAFTTN
TAF
KTTN 031123Z 0312/0412 VRB03KT P6SM BKN100
     FM031800 17004KT P6SM -SHSN OVC045
     FM032000 17004KT 4SM -SNPL OVC025
     FM032100 17006KT 1SM -PL OVC008
     FM040100 17006KT 1SM -FZRAPL OVC005 WS020/21040KT
     FM040400 20006KT 2SM RA BR OVC005 WS015/23050KT
     FM040800 24006KT 2SM -RADZ BR OVC005 WS020/25040KT=

USA.gov is the U.S. government's official web portal to all federal, state and local government web resources and services.